createdAt,value
2022-08-25T00:00:22.587Z,0.08
2022-08-25T00:02:56.098Z,0.10
2022-08-25T00:05:32.236Z,0.10
2022-08-25T00:08:01.847Z,0.13
2022-08-25T00:10:30.583Z,0.10
2022-08-25T00:12:59.188Z,0.10
2022-08-25T00:15:28.619Z,0.10
2022-08-25T00:17:57.515Z,0.20
2022-08-25T00:20:26.792Z,0.17
2022-08-25T00:22:56.426Z,0.10
2022-08-25T00:25:26.756Z,0.10
2022-08-25T00:27:55.637Z,0.15
2022-08-25T00:30:23.967Z,0.10
2022-08-25T00:32:57.580Z,0.10
2022-08-25T00:35:26.970Z,0.10
2022-08-25T00:37:55.901Z,0.10
2022-08-25T00:40:26.472Z,0.10
2022-08-25T00:42:56.168Z,0.10
2022-08-25T00:45:24.800Z,0.10
2022-08-25T00:47:53.282Z,0.10
2022-08-25T00:50:22.921Z,0.68
2022-08-25T00:53:00.125Z,0.10
2022-08-25T00:55:40.319Z,0.10
2022-08-25T00:58:21.511Z,0.20
2022-08-25T01:00:55.613Z,0.10
2022-08-25T01:03:35.662Z,0.15
2022-08-25T01:06:05.590Z,0.20
2022-08-25T01:08:34.319Z,0.20
2022-08-25T01:11:07.499Z,0.30
2022-08-25T01:13:45.351Z,0.32
2022-08-25T01:16:15.814Z,0.20
2022-08-25T01:18:59.463Z,0.25
2022-08-25T01:21:30.580Z,0.10
2022-08-25T01:24:00.040Z,0.10
2022-08-25T01:26:32.758Z,0.10
2022-08-25T01:29:25.680Z,0.10
2022-08-25T01:32:00.580Z,0.10
2022-08-25T01:34:33.709Z,0.10
2022-08-25T01:37:02.180Z,0.10
2022-08-25T01:39:34.084Z,0.63
2022-08-25T01:42:19.693Z,0.10
2022-08-25T01:44:49.021Z,0.20
2022-08-25T01:47:17.444Z,0.10
2022-08-25T01:49:45.749Z,0.10
2022-08-25T01:52:40.069Z,0.10
2022-08-25T01:55:08.546Z,0.10
2022-08-25T01:57:36.764Z,0.10
2022-08-25T02:00:12.509Z,0.10
2022-08-25T02:02:42.543Z,0.10
2022-08-25T02:05:14.200Z,0.30
2022-08-25T02:07:44.251Z,0.10
2022-08-25T02:10:13.892Z,0.20
2022-08-25T02:12:42.276Z,0.15
2022-08-25T02:15:10.804Z,0.30
2022-08-25T02:17:39.481Z,0.13
2022-08-25T02:20:09.752Z,0.10
2022-08-25T02:22:38.063Z,0.20
2022-08-25T02:25:06.850Z,0.10
2022-08-25T02:27:35.576Z,0.10
2022-08-25T02:30:06.077Z,0.10
2022-08-25T02:32:34.406Z,0.10
2022-08-25T02:35:02.844Z,0.10
2022-08-25T02:37:31.082Z,0.10
2022-08-25T02:40:00.207Z,0.10
2022-08-25T02:42:28.540Z,0.20
2022-08-25T02:44:57.171Z,0.20
2022-08-25T02:47:27.075Z,0.10
2022-08-25T02:49:55.797Z,0.20
2022-08-25T02:52:25.357Z,0.20
2022-08-25T02:54:54.093Z,0.20
2022-08-25T02:57:22.342Z,0.10
2022-08-25T02:59:51.718Z,0.25
2022-08-25T03:02:20.407Z,0.10
2022-08-25T03:04:48.677Z,0.20
2022-08-25T03:07:17.853Z,0.10
2022-08-25T03:09:46.506Z,0.10
2022-08-25T03:12:14.877Z,0.20
2022-08-25T03:14:43.313Z,0.10
2022-08-25T03:17:11.552Z,0.20
2022-08-25T03:19:40.066Z,0.10
2022-08-25T03:22:08.298Z,0.20
2022-08-25T03:24:36.520Z,0.10
2022-08-25T03:27:05.514Z,0.10
2022-08-25T03:29:34.599Z,0.10
2022-08-25T03:32:03.129Z,0.20
2022-08-25T03:34:31.689Z,0.17
2022-08-25T03:37:00.337Z,0.10
2022-08-25T03:39:29.185Z,0.10
2022-08-25T03:41:57.604Z,0.20
2022-08-25T03:44:25.817Z,0.10
2022-08-25T03:46:54.095Z,0.17
2022-08-25T03:49:24.186Z,0.20
2022-08-25T03:51:54.999Z,0.20
2022-08-25T03:54:25.990Z,0.10
2022-08-25T03:56:54.776Z,0.17
2022-08-25T03:59:23.313Z,0.20
2022-08-25T04:01:55.086Z,0.10
2022-08-25T04:04:24.377Z,0.20
2022-08-25T04:06:53.137Z,0.00
2022-08-25T04:09:21.700Z,0.00
2022-08-25T04:11:53.045Z,0.10
2022-08-25T04:14:23.659Z,0.10
2022-08-25T04:16:53.297Z,0.10
2022-08-25T04:19:22.145Z,0.20
2022-08-25T04:21:51.810Z,0.20
2022-08-25T04:24:25.117Z,0.10
2022-08-25T04:26:53.549Z,0.10
2022-08-25T04:29:24.086Z,0.20
2022-08-25T04:31:54.882Z,0.17
2022-08-25T04:34:30.926Z,0.22
2022-08-25T04:37:03.041Z,0.10
2022-08-25T04:39:32.111Z,0.10
2022-08-25T04:42:01.009Z,0.10
2022-08-25T04:44:30.605Z,0.30
2022-08-25T04:46:59.349Z,0.10
2022-08-25T04:49:28.493Z,0.22
2022-08-25T04:51:57.633Z,0.15
2022-08-25T04:54:26.413Z,0.20
2022-08-25T04:56:58.446Z,0.47
2022-08-25T04:59:30.317Z,0.20
2022-08-25T05:02:03.342Z,0.30
2022-08-25T05:04:33.164Z,0.20
2022-08-25T05:07:01.832Z,0.10
2022-08-25T05:09:32.495Z,0.20
2022-08-25T05:12:04.911Z,0.15
2022-08-25T05:14:35.523Z,0.22
2022-08-25T05:17:03.942Z,0.10
2022-08-25T05:19:32.209Z,0.20
2022-08-25T05:22:00.466Z,0.20
2022-08-25T05:24:29.712Z,0.10
2022-08-25T05:26:58.289Z,0.20
2022-08-25T05:29:27.399Z,0.10
2022-08-25T05:31:55.989Z,0.22
2022-08-25T05:34:25.580Z,0.20
2022-08-25T05:36:54.675Z,0.10
2022-08-25T05:39:22.922Z,0.17
2022-08-25T05:41:53.013Z,0.10
2022-08-25T05:44:21.625Z,0.10
2022-08-25T05:46:50.674Z,0.20
2022-08-25T05:49:19.185Z,0.10
2022-08-25T05:51:47.499Z,0.20
2022-08-25T05:54:16.094Z,0.20
2022-08-25T05:56:45.546Z,0.10
2022-08-25T05:59:13.884Z,0.15
2022-08-25T06:02:00.841Z,0.10
2022-08-25T06:04:29.377Z,0.10
2022-08-25T06:06:57.730Z,0.10
2022-08-25T06:09:26.587Z,0.15
2022-08-25T06:11:55.534Z,0.20
2022-08-25T06:14:25.029Z,0.20
2022-08-25T06:16:53.629Z,0.15
2022-08-25T06:19:23.677Z,0.38
2022-08-25T06:21:56.078Z,0.10
2022-08-25T06:24:26.999Z,0.20
2022-08-25T06:26:56.772Z,0.30
2022-08-25T06:29:25.474Z,0.63
2022-08-25T06:31:53.791Z,0.30
2022-08-25T06:34:23.913Z,0.20
2022-08-25T06:36:53.107Z,0.20
2022-08-25T06:39:21.773Z,0.57
2022-08-25T06:41:54.431Z,0.20
2022-08-25T06:44:24.155Z,0.30
2022-08-25T06:46:52.548Z,0.38
2022-08-25T06:49:21.048Z,0.20
2022-08-25T06:51:50.715Z,0.10
2022-08-25T06:54:18.914Z,0.20
2022-08-25T06:56:49.686Z,0.22
2022-08-25T06:59:18.959Z,0.30
2022-08-25T07:01:47.286Z,0.20
2022-08-25T07:04:18.624Z,0.20
2022-08-25T07:06:47.317Z,0.13
2022-08-25T07:09:16.504Z,0.30
2022-08-25T07:11:45.769Z,0.20
2022-08-25T07:14:16.962Z,0.30
2022-08-25T07:16:49.332Z,0.20
2022-08-25T07:19:22.108Z,0.20
2022-08-25T07:21:55.004Z,0.20
2022-08-25T07:24:24.130Z,0.10
2022-08-25T07:26:52.917Z,0.20
2022-08-25T07:29:31.976Z,0.10
2022-08-25T07:32:02.394Z,0.20
2022-08-25T07:34:51.846Z,0.10
2022-08-25T07:40:15.462Z,0.10
2022-08-25T07:42:45.084Z,0.20
2022-08-25T07:45:13.975Z,0.20
2022-08-25T07:47:45.701Z,0.20
2022-08-25T07:50:14.531Z,0.15
2022-08-25T07:52:42.994Z,0.30
2022-08-25T07:55:11.694Z,0.20
2022-08-25T07:57:43.025Z,0.10
2022-08-25T08:00:16.608Z,0.22
2022-08-25T08:02:45.515Z,0.30
2022-08-25T08:05:16.139Z,0.20
2022-08-25T08:07:44.897Z,0.20
2022-08-25T08:13:07.103Z,0.47
2022-08-25T08:15:37.015Z,0.20
2022-08-25T08:18:07.242Z,0.40
2022-08-25T08:20:42.552Z,0.20
2022-08-25T08:23:11.807Z,0.10
2022-08-25T08:25:40.237Z,0.20
2022-08-25T08:28:08.854Z,0.20
2022-08-25T08:30:39.440Z,0.03
2022-08-25T08:33:11.354Z,0.10
2022-08-25T08:35:41.766Z,0.10
2022-08-25T08:38:17.249Z,0.10
2022-08-25T08:41:23.316Z,0.13
2022-08-25T08:44:24.374Z,0.25
2022-08-25T08:47:38.149Z,0.03
2022-08-25T08:50:27.898Z,0.20
2022-08-25T08:53:04.071Z,0.20
2022-08-25T08:56:15.104Z,0.93
2022-08-25T08:58:56.166Z,0.20
2022-08-25T09:01:46.899Z,0.13
2022-08-25T09:04:53.110Z,0.17
2022-08-25T09:07:30.853Z,0.15
2022-08-25T09:10:00.629Z,0.30
2022-08-25T09:12:55.370Z,0.40
2022-08-25T09:16:02.835Z,0.50
2022-08-25T09:18:55.350Z,0.73
2022-08-25T09:21:56.633Z,0.20
2022-08-25T09:24:59.976Z,0.30
2022-08-25T09:27:58.810Z,0.30
2022-08-25T09:30:34.112Z,0.20
2022-08-25T09:33:05.133Z,0.52
2022-08-25T09:35:37.510Z,0.38
2022-08-25T09:38:12.155Z,0.43
2022-08-25T09:40:47.479Z,0.45
2022-08-25T09:43:43.192Z,1.10
2022-08-25T09:46:26.922Z,0.98
2022-08-25T09:49:16.786Z,0.65
2022-08-25T09:51:45.308Z,1.33
2022-08-25T09:54:13.027Z,0.80
2022-08-25T09:56:54.429Z,0.70
2022-08-25T09:59:32.868Z,0.60
2022-08-25T10:02:28.845Z,1.35
2022-08-25T10:04:57.428Z,0.73
2022-08-25T10:07:37.306Z,0.95
2022-08-25T10:10:19.403Z,0.43
2022-08-25T10:12:51.294Z,0.75
2022-08-25T10:15:29.466Z,1.10
2022-08-25T10:18:29.550Z,0.35
2022-08-25T10:21:19.587Z,0.68
2022-08-25T10:23:52.694Z,0.80
2022-08-25T10:26:53.850Z,2.35
2022-08-25T10:29:59.004Z,1.83
2022-08-25T10:33:01.048Z,1.33
2022-08-25T10:36:04.141Z,1.38
2022-08-25T10:38:48.438Z,0.93
2022-08-25T10:41:28.335Z,0.93
2022-08-25T10:44:42.717Z,0.63
2022-08-25T10:47:22.710Z,0.63
2022-08-25T10:50:04.831Z,0.93
2022-08-25T10:52:39.797Z,0.57
2022-08-25T10:55:17.185Z,0.50
2022-08-25T10:58:05.175Z,0.52
2022-08-25T11:00:48.730Z,0.30
2022-08-25T11:04:02.701Z,0.50
2022-08-25T11:06:57.117Z,0.68
2022-08-25T11:09:33.585Z,0.40
2022-08-25T11:12:19.474Z,0.38
2022-08-25T11:14:57.645Z,0.80
2022-08-25T11:17:39.800Z,0.93
2022-08-25T11:20:19.144Z,0.65
2022-08-25T11:22:58.000Z,0.40
2022-08-25T11:25:35.299Z,1.52
2022-08-25T11:28:26.753Z,1.05
2022-08-25T11:30:58.479Z,0.57
2022-08-25T11:33:30.676Z,0.50
2022-08-25T11:36:11.530Z,0.60
2022-08-25T11:39:08.129Z,1.05
2022-08-25T11:42:32.063Z,0.20
2022-08-25T11:45:45.744Z,0.60
2022-08-25T11:48:52.335Z,0.95
2022-08-25T11:51:41.624Z,0.95
2022-08-25T11:54:44.666Z,1.50
2022-08-25T11:57:16.730Z,1.40
2022-08-25T11:59:50.416Z,1.30
2022-08-25T12:02:42.712Z,1.48
2022-08-25T12:05:32.217Z,0.28
2022-08-25T12:08:25.197Z,1.02
2022-08-25T12:11:11.203Z,1.52
2022-08-25T12:13:49.143Z,1.95
2022-08-25T12:16:40.928Z,0.52
2022-08-25T12:19:30.496Z,0.95
2022-08-25T12:22:03.141Z,2.42
2022-08-25T12:24:48.040Z,2.35
2022-08-25T12:27:33.603Z,1.13
2022-08-25T12:30:18.504Z,1.20
2022-08-25T12:33:22.121Z,1.13
2022-08-25T12:36:06.460Z,2.33
2022-08-25T12:38:52.394Z,1.33
2022-08-25T12:41:31.101Z,1.52
2022-08-25T12:44:41.873Z,1.85
2022-08-25T12:47:27.243Z,2.70
2022-08-25T12:50:36.411Z,3.50
2022-08-25T12:53:11.797Z,3.35
2022-08-25T12:55:48.011Z,2.17
2022-08-25T12:58:17.116Z,1.77
2022-08-25T13:01:35.748Z,3.05
2022-08-25T13:04:26.199Z,2.22
2022-08-25T13:07:31.382Z,2.95
2022-08-25T13:10:49.074Z,3.95
2022-08-25T13:13:47.582Z,2.25
2022-08-25T13:16:30.335Z,3.08
2022-08-25T13:18:59.692Z,0.60
2022-08-25T13:21:36.222Z,0.22
2022-08-25T13:24:26.630Z,0.32
2022-08-25T13:27:01.225Z,0.85
2022-08-25T13:29:37.322Z,0.57
2022-08-25T13:32:14.924Z,0.20
2022-08-25T13:34:44.068Z,0.57
2022-08-25T13:37:29.508Z,0.20
2022-08-25T13:40:30.047Z,1.00
2022-08-25T13:43:05.792Z,0.30
2022-08-25T13:45:46.903Z,0.40
2022-08-25T13:48:38.429Z,0.20
2022-08-25T13:51:31.275Z,0.40
2022-08-25T13:54:05.955Z,0.50
2022-08-25T13:56:41.177Z,2.05
2022-08-25T13:59:33.245Z,1.38
2022-08-25T14:02:01.948Z,0.80
2022-08-25T14:04:53.108Z,0.40
2022-08-25T14:07:26.024Z,0.40
2022-08-25T14:09:56.083Z,0.50
2022-08-25T14:12:35.591Z,0.50
2022-08-25T14:15:17.671Z,0.40
2022-08-25T14:18:01.339Z,0.63
2022-08-25T14:20:32.378Z,0.25
2022-08-25T14:23:16.214Z,0.32
2022-08-25T14:25:50.122Z,0.35
2022-08-25T14:28:22.823Z,0.40
2022-08-25T14:30:56.193Z,0.15
2022-08-25T14:33:31.819Z,0.93
2022-08-25T14:36:02.893Z,0.20
2022-08-25T14:38:33.190Z,0.55
2022-08-25T14:41:01.672Z,0.30
2022-08-25T14:43:31.923Z,0.65
2022-08-25T14:46:05.772Z,0.20
2022-08-25T14:48:43.106Z,0.08
2022-08-25T14:51:13.621Z,0.03
2022-08-25T14:53:43.339Z,0.32
2022-08-25T14:56:11.878Z,0.28
2022-08-25T14:58:48.423Z,0.10
2022-08-25T15:01:29.148Z,0.17
2022-08-25T15:04:05.441Z,0.08
2022-08-25T15:06:36.413Z,0.30
2022-08-25T15:09:11.111Z,0.38
2022-08-25T15:11:44.364Z,0.47
2022-08-25T15:14:17.588Z,1.67
2022-08-25T15:16:53.253Z,1.05
2022-08-25T15:19:25.105Z,0.57
2022-08-25T15:21:54.363Z,0.80
2022-08-25T15:24:27.517Z,0.77
2022-08-25T15:27:02.296Z,1.48
2022-08-25T15:29:35.021Z,1.40
2022-08-25T15:32:07.415Z,0.75
2022-08-25T15:34:36.882Z,1.85
2022-08-25T15:37:15.432Z,1.15
2022-08-25T15:39:45.713Z,1.35
2022-08-25T15:42:15.294Z,0.90
2022-08-25T15:44:53.221Z,1.20
2022-08-25T15:47:24.294Z,1.20
2022-08-25T15:50:14.666Z,0.40
2022-08-25T15:52:47.455Z,0.10
2022-08-25T15:55:17.394Z,0.75
2022-08-25T15:57:45.914Z,0.90
2022-08-25T16:00:16.643Z,1.20
2022-08-25T16:02:45.491Z,0.70
2022-08-25T16:05:16.466Z,1.00
2022-08-25T16:07:51.680Z,1.10
2022-08-25T16:10:21.163Z,0.50
2022-08-25T16:12:50.118Z,1.40
2022-08-25T16:15:18.520Z,0.90
2022-08-25T16:17:52.557Z,1.20
2022-08-25T16:20:20.977Z,0.20
2022-08-25T16:22:51.396Z,0.30
2022-08-25T16:25:20.891Z,0.73
2022-08-25T16:27:49.784Z,0.70
2022-08-25T16:30:18.634Z,0.50
2022-08-25T16:32:47.148Z,0.60
2022-08-25T16:35:16.516Z,0.73
2022-08-25T16:37:44.913Z,0.60
2022-08-25T16:40:14.851Z,0.80
2022-08-25T16:42:43.410Z,0.30
2022-08-25T16:45:11.929Z,0.38
2022-08-25T16:47:42.758Z,1.17
2022-08-25T16:50:12.028Z,0.77
2022-08-25T16:52:59.643Z,0.28
2022-08-25T16:55:39.140Z,0.40
2022-08-25T16:58:12.605Z,0.47
2022-08-25T17:00:44.682Z,0.25
2022-08-25T17:03:13.434Z,0.30
2022-08-25T17:05:43.175Z,0.25
2022-08-25T17:08:31.377Z,0.20
2022-08-25T17:11:14.197Z,0.17
2022-08-25T17:13:52.157Z,2.30
2022-08-25T17:16:24.817Z,0.40
2022-08-25T17:18:53.300Z,0.60
2022-08-25T17:21:26.908Z,0.73
2022-08-25T17:23:57.929Z,0.45
2022-08-25T17:26:29.212Z,0.25
2022-08-25T17:29:01.177Z,0.63
2022-08-25T17:31:30.868Z,0.13
2022-08-25T17:34:09.874Z,0.25
2022-08-25T17:36:41.282Z,0.10
2022-08-25T17:39:14.166Z,0.10
2022-08-25T17:41:44.002Z,0.10
2022-08-25T17:44:12.997Z,0.52
2022-08-25T17:46:47.553Z,0.20
2022-08-25T17:49:17.445Z,0.10
2022-08-25T17:51:45.990Z,0.20
2022-08-25T17:54:14.245Z,0.30
2022-08-25T17:56:42.348Z,0.30
2022-08-25T17:59:11.948Z,0.98
2022-08-25T18:01:41.020Z,0.57
2022-08-25T18:04:17.612Z,0.73
2022-08-25T18:06:48.626Z,0.68
2022-08-25T18:09:17.793Z,0.47
2022-08-25T18:11:46.248Z,1.17
2022-08-25T18:14:16.735Z,1.23
2022-08-25T18:16:45.774Z,0.80
2022-08-25T18:19:14.621Z,0.85
2022-08-25T18:21:43.412Z,1.38
2022-08-25T18:24:13.320Z,0.32
2022-08-25T18:26:41.827Z,0.40
2022-08-25T18:29:13.097Z,0.68
2022-08-25T18:31:42.182Z,0.30
2022-08-25T18:34:11.617Z,0.82
2022-08-25T18:36:41.349Z,0.60
2022-08-25T18:39:30.503Z,0.50
2022-08-25T18:42:05.181Z,0.40
2022-08-25T18:44:37.944Z,0.28
2022-08-25T18:47:07.469Z,0.17
2022-08-25T18:49:37.216Z,0.43
2022-08-25T18:52:05.939Z,0.30
2022-08-25T18:54:36.093Z,0.50
2022-08-25T18:57:04.438Z,0.45
2022-08-25T18:59:37.128Z,0.55
2022-08-25T19:02:07.178Z,0.93
2022-08-25T19:04:35.614Z,1.30
2022-08-25T19:07:05.200Z,0.77
2022-08-25T19:09:36.465Z,1.10
2022-08-25T19:12:05.663Z,0.60
2022-08-25T19:14:33.459Z,0.32
2022-08-25T19:17:02.236Z,0.95
2022-08-25T19:19:30.259Z,0.93
2022-08-25T19:21:59.693Z,0.32
2022-08-25T19:24:28.645Z,0.47
2022-08-25T19:26:57.913Z,0.60
2022-08-25T19:29:26.540Z,0.50
2022-08-25T19:32:01.125Z,0.40
2022-08-25T19:34:38.177Z,0.50
2022-08-25T19:37:16.800Z,0.63
2022-08-25T19:39:52.952Z,0.88
2022-08-25T19:42:34.911Z,0.88
2022-08-25T19:45:11.202Z,0.82
2022-08-25T19:47:42.158Z,0.73
2022-08-25T19:50:16.809Z,0.80
2022-08-25T19:52:49.915Z,1.00
2022-08-25T19:55:20.525Z,1.13
2022-08-25T19:57:48.841Z,0.80
2022-08-25T20:00:26.250Z,0.30
2022-08-25T20:02:56.223Z,0.90
2022-08-25T20:05:28.531Z,0.55
2022-08-25T20:07:59.431Z,0.30
2022-08-25T20:10:31.788Z,0.52
2022-08-25T20:13:05.411Z,0.90
2022-08-25T20:15:38.990Z,0.82
2022-08-25T20:18:08.129Z,2.13
2022-08-25T20:20:36.600Z,0.50
2022-08-25T20:23:24.094Z,0.20
2022-08-25T20:25:52.897Z,0.25
2022-08-25T20:28:20.593Z,0.25
2022-08-25T20:30:48.888Z,0.68
2022-08-25T20:33:20.191Z,0.30
2022-08-25T20:35:52.949Z,0.25
2022-08-25T20:38:21.474Z,0.32
2022-08-25T20:40:49.598Z,0.35
2022-08-25T20:43:17.950Z,0.20
2022-08-25T20:45:49.239Z,0.40
2022-08-25T20:48:18.057Z,0.25
2022-08-25T20:50:46.184Z,0.20
2022-08-25T20:53:26.264Z,0.77
2022-08-25T20:55:54.473Z,0.70
2022-08-25T20:58:22.662Z,0.80
2022-08-25T21:00:51.872Z,0.50
2022-08-25T21:03:21.175Z,0.20
2022-08-25T21:05:49.466Z,0.22
2022-08-25T21:08:23.823Z,0.70
2022-08-25T21:10:53.542Z,0.20
2022-08-25T21:13:22.754Z,0.35
2022-08-25T21:15:51.094Z,0.85
2022-08-25T21:18:19.304Z,0.50
2022-08-25T21:20:47.453Z,0.85
2022-08-25T21:23:15.634Z,1.17
2022-08-25T21:25:43.851Z,0.20
2022-08-25T21:28:12.024Z,0.40
2022-08-25T21:30:44.785Z,0.35
2022-08-25T21:33:15.653Z,0.32
2022-08-25T21:35:44.133Z,0.43
2022-08-25T21:38:15.280Z,0.85
2022-08-25T21:40:44.858Z,1.15
2022-08-25T21:43:13.303Z,1.65
2022-08-25T21:45:46.780Z,1.20
2022-08-25T21:48:15.822Z,1.08
2022-08-25T21:50:44.106Z,0.98
2022-08-25T21:53:12.319Z,1.00
2022-08-25T21:55:42.140Z,0.68
2022-08-25T21:58:10.982Z,0.85
2022-08-25T22:00:39.210Z,0.50
2022-08-25T22:03:07.639Z,0.63
2022-08-25T22:05:37.644Z,0.70
2022-08-25T22:08:06.052Z,0.98
2022-08-25T22:10:34.757Z,0.60
2022-08-25T22:13:04.058Z,0.60
2022-08-25T22:15:32.388Z,0.80
2022-08-25T22:18:00.660Z,0.65
2022-08-25T22:20:29.567Z,1.38
2022-08-25T22:22:58.145Z,1.08
2022-08-25T22:25:28.273Z,1.50
2022-08-25T22:27:57.207Z,1.00
2022-08-25T22:30:26.263Z,0.60
2022-08-25T22:32:59.032Z,0.80
2022-08-25T22:35:28.485Z,0.77
2022-08-25T22:37:57.270Z,2.15
2022-08-25T22:40:29.145Z,0.38
2022-08-25T22:42:58.141Z,0.70
2022-08-25T22:45:27.342Z,0.77
2022-08-25T22:47:55.982Z,0.30
2022-08-25T22:50:24.360Z,1.63
2022-08-25T22:52:53.913Z,0.30
2022-08-25T22:55:22.154Z,0.70
2022-08-25T22:57:50.557Z,0.43
2022-08-25T23:00:23.298Z,0.70
2022-08-25T23:02:53.482Z,0.73
2022-08-25T23:05:22.264Z,1.10
2022-08-25T23:07:51.286Z,0.88
2022-08-25T23:10:20.886Z,1.15
2022-08-25T23:12:49.194Z,1.23
2022-08-25T23:15:17.373Z,2.00
2022-08-25T23:17:45.682Z,0.82
2022-08-25T23:20:34.280Z,1.17
2022-08-25T23:23:03.020Z,1.10
2022-08-25T23:25:31.448Z,1.02
2022-08-25T23:27:59.943Z,1.73
2022-08-25T23:30:28.134Z,0.68
2022-08-25T23:32:58.843Z,1.70
2022-08-25T23:35:27.093Z,1.40
2022-08-25T23:37:58.698Z,1.08
2022-08-25T23:40:27.810Z,1.45
2022-08-25T23:42:56.036Z,1.35
2022-08-25T23:45:24.242Z,0.95
2022-08-25T23:47:54.081Z,0.60
2022-08-25T23:50:22.276Z,0.82
2022-08-25T23:52:50.642Z,0.28
2022-08-25T23:55:18.999Z,1.25
2022-08-25T23:57:51.400Z,1.52
